createdAt,value
2023-11-08T00:00:01.802Z,98091.41
2023-11-08T00:02:28.350Z,98092.16
2023-11-08T00:04:54.895Z,98088.69
2023-11-08T00:07:21.491Z,98075.47
2023-11-08T00:09:48.192Z,98090.50
2023-11-08T00:12:17.961Z,98086.06
2023-11-08T00:14:45.163Z,98078.88
2023-11-08T00:17:15.216Z,98080.84
2023-11-08T00:19:42.441Z,98085.00
2023-11-08T00:22:09.311Z,98088.59
2023-11-08T00:24:35.994Z,98087.63
2023-11-08T00:27:02.735Z,98086.81
2023-11-08T00:29:29.262Z,98088.41
2023-11-08T00:31:55.814Z,98093.78
2023-11-08T00:34:22.469Z,98093.91
2023-11-08T00:36:50.161Z,98086.06
2023-11-08T00:39:19.866Z,98092.47
2023-11-08T00:41:47.082Z,98088.22
2023-11-08T00:44:14.441Z,98088.31
2023-11-08T00:46:41.977Z,98097.88
2023-11-08T00:49:08.760Z,98109.34
2023-11-08T00:51:36.568Z,98100.47
2023-11-08T00:54:04.164Z,98101.50
2023-11-08T00:56:31.571Z,98098.16
2023-11-08T00:58:58.964Z,98103.28
2023-11-08T01:01:25.757Z,98098.81
2023-11-08T01:03:52.510Z,98105.72
2023-11-08T01:06:19.307Z,98097.84
2023-11-08T01:08:46.051Z,98101.41
2023-11-08T01:11:12.761Z,98104.91
2023-11-08T01:13:39.470Z,98098.84
2023-11-08T01:16:07.180Z,98099.66
2023-11-08T01:18:36.022Z,98103.25
2023-11-08T01:21:03.800Z,98098.91
2023-11-08T01:23:30.694Z,98098.03
2023-11-08T01:25:57.667Z,98092.22
2023-11-08T01:28:25.264Z,98088.72
2023-11-08T01:30:52.129Z,98090.53
2023-11-08T01:33:19.175Z,98088.00
2023-11-08T01:35:46.010Z,98081.94
2023-11-08T01:38:13.892Z,98093.38
2023-11-08T01:43:36.662Z,98100.06
2023-11-08T01:46:15.327Z,98099.13
2023-11-08T01:48:43.576Z,98092.22
2023-11-08T01:51:10.905Z,98089.53
2023-11-08T01:53:44.436Z,98090.44
2023-11-08T01:56:14.213Z,98082.66
2023-11-08T01:58:42.222Z,98091.44
2023-11-08T02:01:10.594Z,98081.09
2023-11-08T02:03:38.653Z,98086.13
2023-11-08T02:06:07.749Z,98081.88
2023-11-08T02:08:35.354Z,98086.28
2023-11-08T02:11:02.420Z,98083.63
2023-11-08T02:13:29.018Z,98072.34
2023-11-08T02:15:55.624Z,98084.53
2023-11-08T02:18:22.524Z,98081.16
2023-11-08T02:20:49.887Z,98086.28
2023-11-08T02:23:17.018Z,98080.09
2023-11-08T02:25:44.658Z,98082.06
2023-11-08T02:28:11.475Z,98074.22
2023-11-08T02:30:38.329Z,98070.84
2023-11-08T02:33:09.508Z,98071.69
2023-11-08T02:35:36.340Z,98071.72
2023-11-08T02:38:04.870Z,98079.53
2023-11-08T02:40:31.513Z,98087.44
2023-11-08T02:42:58.323Z,98078.69
2023-11-08T02:45:25.130Z,98086.56
2023-11-08T02:47:51.998Z,98085.81
2023-11-08T02:50:18.807Z,98076.34
2023-11-08T02:52:45.516Z,98083.28
2023-11-08T02:55:12.793Z,98076.19
2023-11-08T02:57:39.451Z,98088.44
2023-11-08T03:00:06.938Z,98080.72
2023-11-08T03:02:34.881Z,98085.97
2023-11-08T03:05:02.193Z,98080.84
2023-11-08T03:07:28.954Z,98084.28
2023-11-08T03:09:55.697Z,98085.31
2023-11-08T03:12:22.340Z,98081.75
2023-11-08T03:14:49.072Z,98077.25
2023-11-08T03:17:16.229Z,98090.38
2023-11-08T03:19:44.063Z,98094.75
2023-11-08T03:22:14.109Z,98090.16
2023-11-08T03:24:41.368Z,98090.94
2023-11-08T03:27:08.121Z,98097.03
2023-11-08T03:29:36.142Z,98093.50
2023-11-08T03:32:03.780Z,98095.38
2023-11-08T03:34:30.675Z,98088.31
2023-11-08T03:36:57.408Z,98086.41
2023-11-08T03:39:24.093Z,98095.38
2023-11-08T03:41:51.174Z,98089.09
2023-11-08T03:44:18.338Z,98073.47
2023-11-08T03:46:45.027Z,98086.53
2023-11-08T03:49:11.972Z,98086.53
2023-11-08T03:51:39.101Z,98075.13
2023-11-08T03:54:05.999Z,98074.47
2023-11-08T03:56:32.772Z,98070.88
2023-11-08T03:58:59.424Z,98076.97
2023-11-08T04:01:26.156Z,98077.03
2023-11-08T04:03:52.990Z,98083.13
2023-11-08T04:06:19.764Z,98083.06
2023-11-08T04:08:46.477Z,98085.81
2023-11-08T04:11:13.366Z,98086.69
2023-11-08T04:13:40.192Z,98086.56
2023-11-08T04:16:07.264Z,98086.41
2023-11-08T04:18:36.764Z,98082.03
2023-11-08T04:21:05.487Z,98081.03
2023-11-08T04:23:32.256Z,98093.22
2023-11-08T04:25:59.007Z,98100.06
2023-11-08T04:28:25.660Z,98096.50
2023-11-08T04:30:52.308Z,98102.50
2023-11-08T04:33:19.083Z,98100.44
2023-11-08T04:35:45.683Z,98100.56
2023-11-08T04:38:12.392Z,98110.91
2023-11-08T04:40:39.152Z,98118.97
2023-11-08T04:43:07.068Z,98116.31
2023-11-08T04:45:33.896Z,98120.59
2023-11-08T04:48:00.628Z,98124.19
2023-11-08T04:50:27.263Z,98120.53
2023-11-08T04:52:53.982Z,98116.88
2023-11-08T04:55:21.606Z,98125.59
2023-11-08T04:57:48.349Z,98115.00
2023-11-08T05:00:16.031Z,98108.94
2023-11-08T05:02:43.504Z,98109.78
2023-11-08T05:05:10.518Z,98096.75
2023-11-08T05:07:37.495Z,98106.31
2023-11-08T05:10:04.615Z,98107.28
2023-11-08T05:12:31.534Z,98106.50
2023-11-08T05:14:58.282Z,98098.56
2023-11-08T05:17:24.995Z,98110.53
2023-11-08T05:19:55.459Z,98107.06
2023-11-08T05:22:23.061Z,98113.25
2023-11-08T05:24:49.912Z,98117.47
2023-11-08T05:27:18.769Z,98113.97
2023-11-08T05:29:45.831Z,98111.38
2023-11-08T05:32:12.579Z,98118.34
2023-11-08T05:34:40.407Z,98114.72
2023-11-08T05:37:07.991Z,98114.84
2023-11-08T05:39:34.785Z,98118.19
2023-11-08T05:42:01.491Z,98122.66
2023-11-08T05:44:28.198Z,98120.97
2023-11-08T05:46:54.876Z,98118.34
2023-11-08T05:49:21.474Z,98126.09
2023-11-08T05:51:48.173Z,98132.28
2023-11-08T05:54:14.828Z,98126.09
2023-11-08T05:56:42.986Z,98128.69
2023-11-08T05:59:09.559Z,98123.50
2023-11-08T06:01:36.320Z,98122.53
2023-11-08T06:04:05.178Z,98128.75
2023-11-08T06:06:32.230Z,98132.13
2023-11-08T06:08:58.855Z,98134.75
2023-11-08T06:11:25.526Z,98144.41
2023-11-08T06:13:52.143Z,98144.41
2023-11-08T06:16:18.816Z,98150.41
2023-11-08T06:18:45.594Z,98151.53
2023-11-08T06:21:16.431Z,98159.25
2023-11-08T06:23:45.128Z,98160.22
2023-11-08T06:26:15.833Z,98170.56
2023-11-08T06:28:42.799Z,98156.56
2023-11-08T06:31:09.950Z,98157.56
2023-11-08T06:33:39.356Z,98161.72
2023-11-08T06:36:06.521Z,98163.63
2023-11-08T06:38:33.308Z,98170.56
2023-11-08T06:40:59.939Z,98174.06
2023-11-08T06:43:26.660Z,98170.50
2023-11-08T06:45:53.294Z,98175.81
2023-11-08T06:48:20.067Z,98176.56
2023-11-08T06:50:46.716Z,98179.41
2023-11-08T06:53:13.383Z,98177.59
2023-11-08T06:55:40.240Z,98180.03
2023-11-08T06:58:09.300Z,98185.34
2023-11-08T07:00:36.886Z,98188.00
2023-11-08T07:03:06.736Z,98183.69
2023-11-08T07:05:38.304Z,98183.75
2023-11-08T07:08:06.212Z,98200.38
2023-11-08T07:10:34.509Z,98197.81
2023-11-08T07:13:01.306Z,98196.91
2023-11-08T07:15:29.375Z,98205.59
2023-11-08T07:17:56.454Z,98217.69
2023-11-08T07:20:23.480Z,98208.94
2023-11-08T07:22:50.149Z,98217.91
2023-11-08T07:25:16.863Z,98224.81
2023-11-08T07:27:43.529Z,98226.53
2023-11-08T07:30:15.159Z,98221.44
2023-11-08T07:32:42.342Z,98223.06
2023-11-08T07:35:10.019Z,98222.16
2023-11-08T07:37:41.295Z,98209.88
2023-11-08T07:40:09.205Z,98226.38
2023-11-08T07:42:39.245Z,98224.78
2023-11-08T07:45:10.421Z,98229.09
2023-11-08T07:47:37.213Z,98230.75
2023-11-08T07:50:07.841Z,98231.47
2023-11-08T07:52:34.844Z,98238.22
2023-11-08T07:55:02.698Z,98239.75
2023-11-08T07:57:29.430Z,98246.03
2023-11-08T07:59:56.137Z,98240.66
2023-11-08T08:02:22.906Z,98249.25
2023-11-08T08:04:51.003Z,98258.00
2023-11-08T08:07:17.775Z,98248.47
2023-11-08T08:09:44.643Z,98255.31
2023-11-08T08:12:13.386Z,98262.22
2023-11-08T08:14:40.114Z,98248.22
2023-11-08T08:17:06.767Z,98260.50
2023-11-08T08:19:33.512Z,98261.28
2023-11-08T08:22:02.747Z,98258.81
2023-11-08T08:24:29.695Z,98261.16
2023-11-08T08:26:57.829Z,98270.91
2023-11-08T08:29:25.769Z,98267.53
2023-11-08T08:31:52.514Z,98269.16
2023-11-08T08:34:28.395Z,98271.78
2023-11-08T08:36:58.618Z,98269.03
2023-11-08T08:39:29.299Z,98281.03
2023-11-08T08:41:56.836Z,98272.13
2023-11-08T08:44:25.176Z,98272.00
2023-11-08T08:46:52.855Z,98264.84
2023-11-08T08:49:22.106Z,98275.34
2023-11-08T08:51:51.123Z,98269.25
2023-11-08T08:54:19.513Z,98282.38
2023-11-08T08:56:50.334Z,98282.19
2023-11-08T08:59:17.227Z,98290.88
2023-11-08T09:01:43.859Z,98299.44
2023-11-08T09:04:10.865Z,98295.91
2023-11-08T09:06:37.598Z,98293.28
2023-11-08T09:09:04.515Z,98288.97
2023-11-08T09:11:31.135Z,98295.78
2023-11-08T09:13:57.873Z,98291.25
2023-11-08T09:16:24.514Z,98290.31
2023-11-08T09:18:51.308Z,98297.16
2023-11-08T09:21:18.035Z,98299.41
2023-11-08T09:23:44.742Z,98303.81
2023-11-08T09:26:12.170Z,98305.34
2023-11-08T09:28:38.916Z,98310.53
2023-11-08T09:31:05.681Z,98308.72
2023-11-08T09:33:32.404Z,98312.28
2023-11-08T09:35:59.100Z,98318.28
2023-11-08T09:38:29.349Z,98324.69
2023-11-08T09:40:56.212Z,98322.97
2023-11-08T09:43:26.771Z,98321.06
2023-11-08T09:45:54.862Z,98312.16
2023-11-08T09:48:24.832Z,98313.47
2023-11-08T09:50:51.824Z,98322.03
2023-11-08T09:53:19.533Z,98321.81
2023-11-08T09:55:46.409Z,98314.59
2023-11-08T09:58:15.697Z,98319.66
2023-11-08T10:00:42.984Z,98328.53
2023-11-08T10:03:10.438Z,98317.56
2023-11-08T10:05:39.060Z,98325.88
2023-11-08T10:08:11.089Z,98320.09
2023-11-08T10:10:38.441Z,98318.50
2023-11-08T10:13:07.362Z,98309.41
2023-11-08T10:15:37.775Z,98320.94
2023-11-08T10:19:32.544Z,98321.88
2023-11-08T10:21:02.905Z,98322.25
2023-11-08T10:23:31.988Z,98331.78
2023-11-08T10:26:19.079Z,98324.84
2023-11-08T10:29:04.707Z,98321.78
2023-11-08T10:31:37.279Z,98318.38
2023-11-08T10:34:05.962Z,98307.47
2023-11-08T10:36:36.237Z,98309.81
2023-11-08T10:39:06.021Z,98311.38
2023-11-08T10:41:33.256Z,98306.88
2023-11-08T10:44:30.331Z,98311.88
2023-11-08T10:46:59.378Z,98314.25
2023-11-08T10:49:26.914Z,98305.19
2023-11-08T10:51:55.065Z,98304.34
2023-11-08T10:54:21.922Z,98316.56
2023-11-08T10:56:50.957Z,98321.09
2023-11-08T10:59:21.197Z,98305.91
2023-11-08T11:01:48.445Z,98309.16
2023-11-08T11:04:17.146Z,98303.81
2023-11-08T11:06:45.185Z,98302.03
2023-11-08T11:09:15.630Z,98289.47
2023-11-08T11:11:46.431Z,98286.16
2023-11-08T11:14:16.652Z,98291.56
2023-11-08T11:16:53.257Z,98295.56
2023-11-08T11:19:26.343Z,98284.38
2023-11-08T11:21:55.836Z,98275.81
2023-11-08T11:24:34.983Z,98286.03
2023-11-08T11:27:03.063Z,98277.38
2023-11-08T11:29:33.316Z,98270.97
2023-11-08T11:32:08.395Z,98277.09
2023-11-08T11:34:34.988Z,98277.63
2023-11-08T11:37:02.027Z,98282.63
2023-11-08T11:39:33.726Z,98289.09
2023-11-08T11:42:01.845Z,98281.72
2023-11-08T11:44:48.377Z,98284.22
2023-11-08T11:47:20.209Z,98284.59
2023-11-08T11:49:50.449Z,98285.38
2023-11-08T11:52:19.610Z,98281.78
2023-11-08T11:54:54.551Z,98283.59
2023-11-08T11:57:23.428Z,98282.63
2023-11-08T11:59:52.919Z,98287.00
2023-11-08T12:02:20.332Z,98274.41
2023-11-08T12:04:53.076Z,98282.03
2023-11-08T12:07:20.872Z,98289.38
2023-11-08T12:09:48.949Z,98292.13
2023-11-08T12:12:34.733Z,98276.69
2023-11-08T12:15:19.902Z,98288.00
2023-11-08T12:17:54.099Z,98279.59
2023-11-08T12:23:17.453Z,98287.81
2023-11-08T12:25:44.387Z,98284.91
2023-11-08T12:28:11.142Z,98289.13
2023-11-08T12:30:38.037Z,98286.63
2023-11-08T12:33:04.967Z,98286.03
2023-11-08T12:35:32.422Z,98291.53
2023-11-08T12:38:00.201Z,98287.81
2023-11-08T12:40:28.848Z,98286.31
2023-11-08T12:43:55.628Z,98290.81
2023-11-08T12:46:35.062Z,98285.22
2023-11-08T12:48:35.368Z,98283.59
2023-11-08T12:51:07.034Z,98290.41
2023-11-08T12:53:33.804Z,98281.16
2023-11-08T12:56:06.877Z,98279.09
2023-11-08T12:58:36.881Z,98282.63
2023-11-08T13:01:04.647Z,98279.34
2023-11-08T13:03:37.185Z,98287.91
2023-11-08T13:06:04.595Z,98285.47
2023-11-08T13:08:32.554Z,98282.06
2023-11-08T13:11:01.957Z,98283.66
2023-11-08T13:13:31.307Z,98280.47
2023-11-08T13:15:59.146Z,98278.69
2023-11-08T13:18:26.499Z,98284.75
2023-11-08T13:20:53.154Z,98285.66
2023-11-08T13:23:59.683Z,98282.16
2023-11-08T13:26:07.290Z,98283.25
2023-11-08T13:28:34.183Z,98276.94
2023-11-08T13:31:00.952Z,98277.91
2023-11-08T13:33:33.128Z,98272.16
2023-11-08T13:36:00.541Z,98273.13
2023-11-08T13:38:28.688Z,98269.28
2023-11-08T13:40:56.112Z,98265.31
2023-11-08T13:43:22.801Z,98262.69
2023-11-08T13:45:49.536Z,98259.06
2023-11-08T13:48:16.715Z,98259.25
2023-11-08T13:50:44.418Z,98254.50
2023-11-08T13:53:11.110Z,98267.03
2023-11-08T13:55:38.094Z,98253.63
2023-11-08T13:58:06.168Z,98250.94
2023-11-08T14:00:45.756Z,98250.97
2023-11-08T14:03:12.391Z,98256.88
2023-11-08T14:05:38.990Z,98250.00
2023-11-08T14:08:05.811Z,98239.97
2023-11-08T14:10:33.460Z,98251.97
2023-11-08T14:13:00.132Z,98247.66
2023-11-08T14:15:26.832Z,98248.53
2023-11-08T14:17:53.629Z,98243.19
2023-11-08T14:20:20.626Z,98241.31
2023-11-08T14:25:39.306Z,98244.38
2023-11-08T14:28:06.160Z,98249.03
2023-11-08T14:30:32.923Z,98239.13
2023-11-08T14:32:59.615Z,98252.25
2023-11-08T14:35:26.404Z,98244.78
2023-11-08T14:37:55.271Z,98239.34
2023-11-08T14:40:22.824Z,98228.94
2023-11-08T14:42:49.421Z,98228.19
2023-11-08T14:45:17.515Z,98224.97
2023-11-08T14:47:44.200Z,98223.38
2023-11-08T14:50:11.375Z,98219.09
2023-11-08T14:52:38.128Z,98216.59
2023-11-08T14:55:05.104Z,98227.13
2023-11-08T14:57:32.070Z,98225.41
2023-11-08T14:59:58.613Z,98220.16
2023-11-08T15:02:25.236Z,98225.41
2023-11-08T15:04:51.956Z,98225.47
2023-11-08T15:09:40.836Z,98223.97
2023-11-08T15:10:05.770Z,98218.84
2023-11-08T15:12:32.497Z,98211.94
2023-11-08T15:14:59.568Z,98212.00
2023-11-08T15:17:26.261Z,98216.53
2023-11-08T15:19:52.816Z,98216.00
2023-11-08T15:22:19.594Z,98217.00
2023-11-08T15:24:50.762Z,98211.78
2023-11-08T15:27:20.397Z,98207.47
2023-11-08T15:29:47.065Z,98204.06
2023-11-08T15:32:13.593Z,98205.78
2023-11-08T15:34:40.491Z,98207.72
2023-11-08T15:37:08.713Z,98203.38
2023-11-08T15:39:35.584Z,98204.34
2023-11-08T15:42:02.143Z,98202.81
2023-11-08T15:44:29.259Z,98198.47
2023-11-08T15:46:56.136Z,98205.38
2023-11-08T15:49:25.257Z,98206.31
2023-11-08T15:51:53.198Z,98201.06
2023-11-08T15:54:20.263Z,98200.34
2023-11-08T15:56:46.793Z,98202.16
2023-11-08T15:59:15.462Z,98193.69
2023-11-08T16:01:49.512Z,98194.53
2023-11-08T16:04:16.821Z,98178.81
2023-11-08T16:06:43.628Z,98183.03
2023-11-08T16:09:11.161Z,98187.44
2023-11-08T16:11:38.701Z,98177.19
2023-11-08T16:14:05.533Z,98170.09
2023-11-08T16:16:32.815Z,98164.03
2023-11-08T16:18:59.414Z,98171.81
2023-11-08T16:21:26.373Z,98173.47
2023-11-08T16:23:52.950Z,98168.22
2023-11-08T16:26:19.914Z,98177.13
2023-11-08T16:28:47.019Z,98164.84
2023-11-08T16:32:30.861Z,98176.25
2023-11-08T16:34:00.782Z,98174.44
2023-11-08T16:36:28.850Z,98172.75
2023-11-08T16:38:55.469Z,98177.16
2023-11-08T16:41:22.196Z,98175.44
2023-11-08T16:43:49.344Z,98174.50
2023-11-08T16:46:19.222Z,98175.38
2023-11-08T16:48:46.352Z,98182.41
2023-11-08T16:51:13.291Z,98178.78
2023-11-08T16:53:40.078Z,98174.50
2023-11-08T16:56:07.391Z,98183.31
2023-11-08T16:58:34.340Z,98185.88
2023-11-08T17:01:01.141Z,98183.94
2023-11-08T17:03:28.309Z,98181.22
2023-11-08T17:05:56.779Z,98169.97
2023-11-08T17:08:23.966Z,98170.91
2023-11-08T17:10:50.616Z,98173.69
2023-11-08T17:13:17.555Z,98171.88
2023-11-08T17:15:44.510Z,98174.50
2023-11-08T17:18:12.110Z,98168.56
2023-11-08T17:20:38.869Z,98180.88
2023-11-08T17:23:05.663Z,98164.09
2023-11-08T17:25:32.322Z,98165.97
2023-11-08T17:27:59.369Z,98170.69
2023-11-08T17:30:26.491Z,98167.19
2023-11-08T17:32:55.230Z,98174.16
2023-11-08T17:35:21.843Z,98183.72
2023-11-08T17:37:48.625Z,98167.19
2023-11-08T17:40:15.521Z,98170.53
2023-11-08T17:42:42.275Z,98172.16
2023-11-08T17:45:10.058Z,98165.16
2023-11-08T17:47:36.992Z,98155.59
2023-11-08T17:50:03.905Z,98153.94
2023-11-08T17:52:30.790Z,98153.47
2023-11-08T17:54:59.369Z,98144.06
2023-11-08T17:57:26.781Z,98143.25
2023-11-08T17:59:53.463Z,98144.31
2023-11-08T18:02:20.305Z,98131.16
2023-11-08T18:04:48.487Z,98130.28
2023-11-08T18:07:16.666Z,98126.06
2023-11-08T18:09:45.299Z,98134.78
2023-11-08T18:12:15.860Z,98126.06
2023-11-08T18:14:43.664Z,98133.66
2023-11-08T18:17:13.803Z,98130.88
2023-11-08T18:19:40.563Z,98124.84
2023-11-08T18:22:07.485Z,98115.88
2023-11-08T18:24:39.950Z,98116.63
2023-11-08T18:27:06.702Z,98105.22
2023-11-08T18:29:33.982Z,98109.63
2023-11-08T18:32:00.636Z,98098.28
2023-11-08T18:34:27.458Z,98093.66
2023-11-08T18:36:54.275Z,98085.88
2023-11-08T18:39:20.864Z,98086.13
2023-11-08T18:41:47.754Z,98085.47
2023-11-08T18:44:14.419Z,98084.59
2023-11-08T18:46:41.053Z,98088.66
2023-11-08T18:49:08.101Z,98096.56
2023-11-08T18:51:34.843Z,98094.06
2023-11-08T18:54:02.097Z,98096.38
2023-11-08T18:56:28.703Z,98104.31
2023-11-08T18:58:55.975Z,98096.38
2023-11-08T19:01:23.903Z,98098.88
2023-11-08T19:03:51.040Z,98099.00
2023-11-08T19:06:17.776Z,98094.03
2023-11-08T19:08:44.455Z,98091.41
2023-11-08T19:11:12.424Z,98089.88
2023-11-08T19:13:39.100Z,98081.84
2023-11-08T19:16:06.360Z,98080.28
2023-11-08T19:18:34.587Z,98081.97
2023-11-08T19:21:02.453Z,98073.13
2023-11-08T19:23:30.299Z,98074.19
2023-11-08T19:26:00.286Z,98062.56
2023-11-08T19:28:27.669Z,98057.97
2023-11-08T19:30:56.443Z,98058.72
2023-11-08T19:33:23.696Z,98048.13
2023-11-08T19:35:50.452Z,98042.28
2023-11-08T19:38:17.164Z,98034.16
2023-11-08T19:40:44.047Z,98038.53
2023-11-08T19:43:11.693Z,98032.16
2023-11-08T19:45:38.508Z,98027.75
2023-11-08T19:48:05.385Z,98044.31
2023-11-08T19:50:32.668Z,98043.34
2023-11-08T19:52:59.624Z,98042.38
2023-11-08T19:55:29.728Z,98030.06
2023-11-08T19:57:56.383Z,98031.06
2023-11-08T20:00:23.147Z,98034.41
2023-11-08T20:02:50.047Z,98028.31
2023-11-08T20:05:16.700Z,98017.91
2023-11-08T20:07:43.348Z,98023.03
2023-11-08T20:10:14.437Z,98016.75
2023-11-08T20:12:41.383Z,98017.13
2023-11-08T20:15:08.547Z,98009.28
2023-11-08T20:17:35.342Z,98004.13
2023-11-08T20:20:02.670Z,98010.34
2023-11-08T20:22:29.457Z,98000.84
2023-11-08T20:24:56.121Z,98000.88
2023-11-08T20:27:24.045Z,98000.75
2023-11-08T20:29:51.312Z,97999.22
2023-11-08T20:32:18.442Z,98001.25
2023-11-08T20:34:45.654Z,98003.06
2023-11-08T20:37:12.572Z,98005.63
2023-11-08T20:39:39.172Z,98000.66
2023-11-08T20:42:08.505Z,97982.13
2023-11-08T20:44:35.238Z,97987.41
2023-11-08T20:47:01.949Z,97998.00
2023-11-08T20:49:28.757Z,97994.50
2023-11-08T20:51:55.828Z,97988.16
2023-11-08T20:54:26.067Z,97982.00
2023-11-08T20:56:53.320Z,97975.94
2023-11-08T20:59:20.549Z,97969.00
2023-11-08T21:01:47.408Z,97969.94
2023-11-08T21:04:14.170Z,97971.72
2023-11-08T21:06:41.131Z,97972.50
2023-11-08T21:09:11.032Z,97958.47
2023-11-08T21:11:38.608Z,97954.22
2023-11-08T21:14:07.822Z,97948.91
2023-11-08T21:16:34.520Z,97940.19
2023-11-08T21:19:03.416Z,97941.66
2023-11-08T21:21:31.585Z,97939.97
2023-11-08T21:23:58.293Z,97941.63
2023-11-08T21:26:25.753Z,97946.66
2023-11-08T21:28:53.078Z,97935.28
2023-11-08T21:31:20.630Z,97935.13
2023-11-08T21:33:47.394Z,97932.25
2023-11-08T21:36:14.205Z,97927.03
2023-11-08T21:38:44.413Z,97923.56
2023-11-08T21:41:14.181Z,97924.34
2023-11-08T21:43:42.070Z,97914.50
2023-11-08T21:46:09.995Z,97914.50
2023-11-08T21:48:37.332Z,97913.59
2023-11-08T21:54:00.980Z,97902.16
2023-11-08T21:56:27.724Z,97891.69
2023-11-08T21:58:54.696Z,97895.19
2023-11-08T22:01:25.466Z,97895.19
2023-11-08T22:03:53.589Z,97892.56
2023-11-08T22:06:21.028Z,97888.31
2023-11-08T22:08:48.245Z,97888.22
2023-11-08T22:11:15.405Z,97889.88
2023-11-08T22:13:42.119Z,97895.13
2023-11-08T22:16:08.966Z,97881.75
2023-11-08T22:18:38.970Z,97885.13
2023-11-08T22:21:06.641Z,97882.31
2023-11-08T22:23:35.021Z,97885.03
2023-11-08T22:26:02.179Z,97880.72
2023-11-08T22:28:28.841Z,97896.72
2023-11-08T22:30:56.076Z,97877.09
2023-11-08T22:33:22.903Z,97874.16
2023-11-08T22:35:49.856Z,97867.19
2023-11-08T22:38:16.540Z,97857.69
2023-11-08T22:40:43.245Z,97851.94
2023-11-08T22:43:09.995Z,97843.34
2023-11-08T22:45:37.681Z,97836.44
2023-11-08T22:48:04.577Z,97839.16
2023-11-08T22:50:31.337Z,97829.03
2023-11-08T22:52:58.024Z,97826.41
2023-11-08T22:55:26.187Z,97832.31
2023-11-08T22:57:52.945Z,97827.28
2023-11-08T23:00:21.077Z,97836.84
2023-11-08T23:05:42.054Z,97838.88
2023-11-08T23:08:09.828Z,97844.88
2023-11-08T23:10:36.464Z,97838.94
2023-11-08T23:13:04.782Z,97833.19
2023-11-08T23:15:32.665Z,97832.53
2023-11-08T23:18:00.396Z,97841.50
2023-11-08T23:20:27.195Z,97830.00
2023-11-08T23:22:56.758Z,97827.44
2023-11-08T23:25:24.218Z,97824.88
2023-11-08T23:27:50.867Z,97823.91
2023-11-08T23:30:17.568Z,97826.31
2023-11-08T23:32:44.270Z,97822.16
2023-11-08T23:35:13.831Z,97816.84
2023-11-08T23:37:51.522Z,97821.19
2023-11-08T23:40:22.225Z,97821.94
2023-11-08T23:42:50.718Z,97817.28
2023-11-08T23:45:17.447Z,97825.25
2023-11-08T23:47:44.146Z,97816.44
2023-11-08T23:50:11.699Z,97820.97
2023-11-08T23:52:38.909Z,97808.63
2023-11-08T23:55:06.138Z,97810.50
2023-11-08T23:57:32.775Z,97804.41
2023-11-08T23:59:59.443Z,97805.34
